sensor_id;sensor_type;location;lat;lon;timestamp;P1;durP1;ratioP1;P2;durP2;ratioP2
43580;SDS011;29175;51.030;4.606;2022-11-27T00:00:57;16.80;;;5.60;;
43580;SDS011;29175;51.030;4.606;2022-11-27T00:03:23;23.38;;;6.45;;
43580;SDS011;29175;51.030;4.606;2022-11-27T00:05:53;16.60;;;6.10;;
43580;SDS011;29175;51.030;4.606;2022-11-27T00:08:21;22.95;;;5.80;;
43580;SDS011;29175;51.030;4.606;2022-11-27T00:10:50;19.95;;;6.30;;
43580;SDS011;29175;51.030;4.606;2022-11-27T00:13:17;18.20;;;7.05;;
43580;SDS011;29175;51.030;4.606;2022-11-27T00:15:43;24.50;;;6.50;;
43580;SDS011;29175;51.030;4.606;2022-11-27T00:18:10;20.58;;;6.25;;
43580;SDS011;29175;51.030;4.606;2022-11-27T00:20:36;27.13;;;5.70;;
43580;SDS011;29175;51.030;4.606;2022-11-27T00:23:01;16.02;;;5.28;;
43580;SDS011;29175;51.030;4.606;2022-11-27T00:25:27;20.77;;;5.20;;
43580;SDS011;29175;51.030;4.606;2022-11-27T00:27:53;17.25;;;6.13;;
43580;SDS011;29175;51.030;4.606;2022-11-27T00:30:18;14.10;;;5.20;;
43580;SDS011;29175;51.030;4.606;2022-11-27T00:32:44;20.08;;;6.40;;
43580;SDS011;29175;51.030;4.606;2022-11-27T00:35:10;15.45;;;5.05;;
43580;SDS011;29175;51.030;4.606;2022-11-27T00:37:35;26.38;;;5.97;;
43580;SDS011;29175;51.030;4.606;2022-11-27T00:40:01;13.60;;;5.47;;
43580;SDS011;29175;51.030;4.606;2022-11-27T00:42:27;19.75;;;5.35;;
43580;SDS011;29175;51.030;4.606;2022-11-27T00:44:53;15.57;;;5.40;;
43580;SDS011;29175;51.030;4.606;2022-11-27T00:47:18;14.48;;;5.93;;
43580;SDS011;29175;51.030;4.606;2022-11-27T00:49:46;16.17;;;5.50;;
43580;SDS011;29175;51.030;4.606;2022-11-27T00:52:13;15.88;;;5.07;;
43580;SDS011;29175;51.030;4.606;2022-11-27T00:54:38;13.00;;;5.15;;
43580;SDS011;29175;51.030;4.606;2022-11-27T00:57:04;20.08;;;5.20;;
43580;SDS011;29175;51.030;4.606;2022-11-27T00:59:30;15.00;;;5.93;;
43580;SDS011;29175;51.030;4.606;2022-11-27T01:01:56;12.38;;;4.97;;
43580;SDS011;29175;51.030;4.606;2022-11-27T01:04:22;17.98;;;5.85;;
43580;SDS011;29175;51.030;4.606;2022-11-27T01:06:47;15.93;;;5.72;;
43580;SDS011;29175;51.030;4.606;2022-11-27T01:09:13;15.45;;;5.78;;
43580;SDS011;29175;51.030;4.606;2022-11-27T01:11:41;18.50;;;5.82;;
43580;SDS011;29175;51.030;4.606;2022-11-27T01:14:09;20.20;;;5.50;;
43580;SDS011;29175;51.030;4.606;2022-11-27T01:16:37;15.00;;;5.50;;
43580;SDS011;29175;51.030;4.606;2022-11-27T01:19:03;18.50;;;5.65;;
43580;SDS011;29175;51.030;4.606;2022-11-27T01:21:31;17.33;;;6.07;;
43580;SDS011;29175;51.030;4.606;2022-11-27T01:23:58;10.85;;;4.70;;
43580;SDS011;29175;51.030;4.606;2022-11-27T01:26:24;17.38;;;5.70;;
43580;SDS011;29175;51.030;4.606;2022-11-27T01:28:51;17.00;;;5.30;;
43580;SDS011;29175;51.030;4.606;2022-11-27T01:31:19;18.83;;;5.90;;
43580;SDS011;29175;51.030;4.606;2022-11-27T01:33:49;15.38;;;5.20;;
43580;SDS011;29175;51.030;4.606;2022-11-27T01:36:22;24.58;;;5.88;;
43580;SDS011;29175;51.030;4.606;2022-11-27T01:38:48;14.25;;;5.15;;
43580;SDS011;29175;51.030;4.606;2022-11-27T01:41:18;15.70;;;4.57;;
43580;SDS011;29175;51.030;4.606;2022-11-27T01:43:49;14.32;;;5.00;;
43580;SDS011;29175;51.030;4.606;2022-11-27T01:46:47;13.65;;;5.30;;
43580;SDS011;29175;51.030;4.606;2022-11-27T01:54:40;12.95;;;4.85;;
43580;SDS011;29175;51.030;4.606;2022-11-27T01:57:20;14.63;;;5.07;;
43580;SDS011;29175;51.030;4.606;2022-11-27T01:59:51;14.77;;;4.90;;
43580;SDS011;29175;51.030;4.606;2022-11-27T02:02:20;13.40;;;4.75;;
43580;SDS011;29175;51.030;4.606;2022-11-27T02:04:46;16.92;;;4.78;;
43580;SDS011;29175;51.030;4.606;2022-11-27T02:07:12;10.32;;;4.40;;
43580;SDS011;29175;51.030;4.606;2022-11-27T02:09:38;19.83;;;4.80;;
43580;SDS011;29175;51.030;4.606;2022-11-27T02:12:24;17.30;;;5.47;;
43580;SDS011;29175;51.030;4.606;2022-11-27T02:15:08;11.43;;;4.80;;
43580;SDS011;29175;51.030;4.606;2022-11-27T02:17:44;13.68;;;4.75;;
43580;SDS011;29175;51.030;4.606;2022-11-27T02:28:57;16.00;;;4.45;;
43580;SDS011;29175;51.030;4.606;2022-11-27T02:31:39;18.98;;;3.67;;
43580;SDS011;29175;51.030;4.606;2022-11-27T02:34:18;9.50;;;3.95;;
43580;SDS011;29175;51.030;4.606;2022-11-27T02:36:49;13.32;;;3.85;;
43580;SDS011;29175;51.030;4.606;2022-11-27T02:39:24;11.50;;;4.25;;
43580;SDS011;29175;51.030;4.606;2022-11-27T02:42:15;8.73;;;3.70;;
43580;SDS011;29175;51.030;4.606;2022-11-27T02:44:46;9.60;;;4.00;;
43580;SDS011;29175;51.030;4.606;2022-11-27T02:47:43;10.65;;;3.55;;
43580;SDS011;29175;51.030;4.606;2022-11-27T02:50:11;9.55;;;3.17;;
43580;SDS011;29175;51.030;4.606;2022-11-27T02:52:44;9.10;;;3.63;;
43580;SDS011;29175;51.030;4.606;2022-11-27T02:55:12;8.73;;;3.90;;
43580;SDS011;29175;51.030;4.606;2022-11-27T02:57:42;7.85;;;2.75;;
43580;SDS011;29175;51.030;4.606;2022-11-27T03:00:09;8.68;;;2.90;;
43580;SDS011;29175;51.030;4.606;2022-11-27T03:02:38;11.13;;;3.50;;
43580;SDS011;29175;51.030;4.606;2022-11-27T03:05:12;6.05;;;3.08;;
43580;SDS011;29175;51.030;4.606;2022-11-27T03:07:43;11.10;;;2.95;;
43580;SDS011;29175;51.030;4.606;2022-11-27T03:12:58;8.15;;;2.90;;
43580;SDS011;29175;51.030;4.606;2022-11-27T03:15:28;5.47;;;2.85;;
43580;SDS011;29175;51.030;4.606;2022-11-27T03:20:40;6.85;;;3.33;;
43580;SDS011;29175;51.030;4.606;2022-11-27T03:23:07;12.63;;;3.47;;
43580;SDS011;29175;51.030;4.606;2022-11-27T03:25:34;6.95;;;2.70;;
43580;SDS011;29175;51.030;4.606;2022-11-27T03:28:01;8.65;;;2.80;;
43580;SDS011;29175;51.030;4.606;2022-11-27T03:32:57;7.55;;;2.63;;
43580;SDS011;29175;51.030;4.606;2022-11-27T03:35:25;7.97;;;3.10;;
43580;SDS011;29175;51.030;4.606;2022-11-27T03:37:51;9.60;;;3.63;;
43580;SDS011;29175;51.030;4.606;2022-11-27T03:40:19;4.82;;;3.03;;
43580;SDS011;29175;51.030;4.606;2022-11-27T03:43:13;10.45;;;3.00;;
43580;SDS011;29175;51.030;4.606;2022-11-27T03:45:49;7.93;;;3.20;;
43580;SDS011;29175;51.030;4.606;2022-11-27T03:48:32;8.63;;;3.17;;
43580;SDS011;29175;51.030;4.606;2022-11-27T03:51:10;6.55;;;2.80;;
43580;SDS011;29175;51.030;4.606;2022-11-27T03:59:11;10.65;;;3.20;;
43580;SDS011;29175;51.030;4.606;2022-11-27T04:01:50;8.43;;;3.25;;
43580;SDS011;29175;51.030;4.606;2022-11-27T04:04:16;10.95;;;3.20;;
43580;SDS011;29175;51.030;4.606;2022-11-27T04:06:42;11.15;;;3.17;;
43580;SDS011;29175;51.030;4.606;2022-11-27T04:09:07;12.80;;;4.18;;
43580;SDS011;29175;51.030;4.606;2022-11-27T04:11:34;16.67;;;3.95;;
43580;SDS011;29175;51.030;4.606;2022-11-27T04:14:00;11.35;;;4.40;;
43580;SDS011;29175;51.030;4.606;2022-11-27T04:16:26;12.30;;;3.95;;
43580;SDS011;29175;51.030;4.606;2022-11-27T04:18:51;8.73;;;3.92;;
43580;SDS011;29175;51.030;4.606;2022-11-27T04:21:17;12.05;;;4.00;;
43580;SDS011;29175;51.030;4.606;2022-11-27T04:23:45;8.52;;;3.70;;
43580;SDS011;29175;51.030;4.606;2022-11-27T04:26:11;9.70;;;4.13;;
43580;SDS011;29175;51.030;4.606;2022-11-27T04:28:36;13.48;;;4.20;;
43580;SDS011;29175;51.030;4.606;2022-11-27T04:31:03;10.60;;;3.72;;
43580;SDS011;29175;51.030;4.606;2022-11-27T04:33:31;9.73;;;3.42;;
43580;SDS011;29175;51.030;4.606;2022-11-27T04:35:58;11.55;;;4.28;;
43580;SDS011;29175;51.030;4.606;2022-11-27T04:38:23;10.48;;;4.00;;
43580;SDS011;29175;51.030;4.606;2022-11-27T04:40:52;14.50;;;3.80;;
43580;SDS011;29175;51.030;4.606;2022-11-27T04:43:20;12.93;;;3.85;;
43580;SDS011;29175;51.030;4.606;2022-11-27T04:45:46;9.75;;;4.60;;
43580;SDS011;29175;51.030;4.606;2022-11-27T04:48:12;9.77;;;4.70;;
43580;SDS011;29175;51.030;4.606;2022-11-27T04:50:38;10.85;;;4.00;;
43580;SDS011;29175;51.030;4.606;2022-11-27T04:53:05;16.17;;;4.22;;
43580;SDS011;29175;51.030;4.606;2022-11-27T04:55:31;11.23;;;4.20;;
43580;SDS011;29175;51.030;4.606;2022-11-27T04:57:56;9.90;;;4.32;;
43580;SDS011;29175;51.030;4.606;2022-11-27T05:00:22;14.48;;;4.20;;
43580;SDS011;29175;51.030;4.606;2022-11-27T05:02:48;19.20;;;4.88;;
43580;SDS011;29175;51.030;4.606;2022-11-27T05:05:13;9.35;;;3.97;;
43580;SDS011;29175;51.030;4.606;2022-11-27T05:07:39;19.60;;;4.65;;
43580;SDS011;29175;51.030;4.606;2022-11-27T05:10:05;13.05;;;4.72;;
43580;SDS011;29175;51.030;4.606;2022-11-27T05:12:32;12.77;;;4.80;;
43580;SDS011;29175;51.030;4.606;2022-11-27T05:14:58;8.93;;;4.32;;
43580;SDS011;29175;51.030;4.606;2022-11-27T05:17:23;12.57;;;4.18;;
43580;SDS011;29175;51.030;4.606;2022-11-27T05:19:55;11.60;;;4.38;;
43580;SDS011;29175;51.030;4.606;2022-11-27T05:22:22;12.98;;;4.72;;
43580;SDS011;29175;51.030;4.606;2022-11-27T05:24:47;10.90;;;4.28;;
43580;SDS011;29175;51.030;4.606;2022-11-27T05:27:14;10.55;;;4.22;;
43580;SDS011;29175;51.030;4.606;2022-11-27T05:29:40;11.55;;;4.97;;
43580;SDS011;29175;51.030;4.606;2022-11-27T05:32:07;14.90;;;5.03;;
43580;SDS011;29175;51.030;4.606;2022-11-27T05:34:34;9.63;;;4.20;;
43580;SDS011;29175;51.030;4.606;2022-11-27T05:37:02;15.98;;;5.35;;
43580;SDS011;29175;51.030;4.606;2022-11-27T05:39:27;18.90;;;5.38;;
43580;SDS011;29175;51.030;4.606;2022-11-27T05:41:54;18.20;;;4.55;;
43580;SDS011;29175;51.030;4.606;2022-11-27T05:44:20;15.18;;;5.60;;
43580;SDS011;29175;51.030;4.606;2022-11-27T05:46:46;12.77;;;4.95;;
43580;SDS011;29175;51.030;4.606;2022-11-27T05:49:13;10.57;;;4.50;;
43580;SDS011;29175;51.030;4.606;2022-11-27T05:51:40;15.45;;;5.72;;
43580;SDS011;29175;51.030;4.606;2022-11-27T05:54:07;16.30;;;5.45;;
43580;SDS011;29175;51.030;4.606;2022-11-27T05:56:32;13.63;;;5.65;;
43580;SDS011;29175;51.030;4.606;2022-11-27T05:58:58;17.42;;;5.90;;
43580;SDS011;29175;51.030;4.606;2022-11-27T06:01:24;13.93;;;5.82;;
43580;SDS011;29175;51.030;4.606;2022-11-27T06:03:50;13.48;;;5.30;;
43580;SDS011;29175;51.030;4.606;2022-11-27T06:06:16;15.20;;;5.88;;
43580;SDS011;29175;51.030;4.606;2022-11-27T06:08:43;16.30;;;5.05;;
43580;SDS011;29175;51.030;4.606;2022-11-27T06:11:11;17.77;;;6.07;;
43580;SDS011;29175;51.030;4.606;2022-11-27T06:13:39;14.80;;;5.50;;
43580;SDS011;29175;51.030;4.606;2022-11-27T06:16:06;23.42;;;6.35;;
43580;SDS011;29175;51.030;4.606;2022-11-27T06:18:33;14.63;;;5.20;;
43580;SDS011;29175;51.030;4.606;2022-11-27T06:20:59;16.67;;;5.72;;
43580;SDS011;29175;51.030;4.606;2022-11-27T06:23:25;19.73;;;5.63;;
43580;SDS011;29175;51.030;4.606;2022-11-27T06:25:50;16.13;;;5.25;;
43580;SDS011;29175;51.030;4.606;2022-11-27T06:28:16;21.33;;;6.32;;
43580;SDS011;29175;51.030;4.606;2022-11-27T06:30:43;16.33;;;5.78;;
43580;SDS011;29175;51.030;4.606;2022-11-27T06:33:08;24.88;;;5.88;;
43580;SDS011;29175;51.030;4.606;2022-11-27T06:35:34;17.77;;;5.75;;
43580;SDS011;29175;51.030;4.606;2022-11-27T06:38:00;20.95;;;5.38;;
43580;SDS011;29175;51.030;4.606;2022-11-27T06:40:25;15.35;;;6.20;;
43580;SDS011;29175;51.030;4.606;2022-11-27T06:42:51;18.23;;;6.18;;
43580;SDS011;29175;51.030;4.606;2022-11-27T06:45:17;21.70;;;6.22;;
43580;SDS011;29175;51.030;4.606;2022-11-27T06:47:43;17.88;;;5.75;;
43580;SDS011;29175;51.030;4.606;2022-11-27T06:50:09;30.60;;;5.80;;
43580;SDS011;29175;51.030;4.606;2022-11-27T06:52:35;15.60;;;5.22;;
43580;SDS011;29175;51.030;4.606;2022-11-27T06:55:01;14.65;;;5.43;;
43580;SDS011;29175;51.030;4.606;2022-11-27T06:57:26;20.52;;;6.18;;
43580;SDS011;29175;51.030;4.606;2022-11-27T06:59:52;17.40;;;6.25;;
43580;SDS011;29175;51.030;4.606;2022-11-27T07:02:19;15.57;;;5.97;;
43580;SDS011;29175;51.030;4.606;2022-11-27T07:04:45;17.33;;;5.10;;
43580;SDS011;29175;51.030;4.606;2022-11-27T07:07:11;19.73;;;6.72;;
43580;SDS011;29175;51.030;4.606;2022-11-27T07:09:36;26.45;;;5.80;;
43580;SDS011;29175;51.030;4.606;2022-11-27T07:12:05;16.27;;;5.72;;
43580;SDS011;29175;51.030;4.606;2022-11-27T07:14:32;14.65;;;5.88;;
43580;SDS011;29175;51.030;4.606;2022-11-27T07:16:57;16.50;;;6.30;;
43580;SDS011;29175;51.030;4.606;2022-11-27T07:19:23;21.88;;;6.43;;
43580;SDS011;29175;51.030;4.606;2022-11-27T07:21:50;20.42;;;6.25;;
43580;SDS011;29175;51.030;4.606;2022-11-27T07:24:15;15.60;;;5.45;;
43580;SDS011;29175;51.030;4.606;2022-11-27T07:26:41;20.00;;;6.00;;
43580;SDS011;29175;51.030;4.606;2022-11-27T07:29:07;19.42;;;6.22;;
43580;SDS011;29175;51.030;4.606;2022-11-27T07:31:33;16.33;;;5.70;;
43580;SDS011;29175;51.030;4.606;2022-11-27T07:33:59;14.93;;;6.35;;
43580;SDS011;29175;51.030;4.606;2022-11-27T07:36:26;12.90;;;5.57;;
43580;SDS011;29175;51.030;4.606;2022-11-27T07:38:53;17.88;;;5.90;;
43580;SDS011;29175;51.030;4.606;2022-11-27T07:41:20;18.83;;;5.85;;
43580;SDS011;29175;51.030;4.606;2022-11-27T07:43:46;13.35;;;5.57;;
43580;SDS011;29175;51.030;4.606;2022-11-27T07:46:13;19.85;;;5.82;;
43580;SDS011;29175;51.030;4.606;2022-11-27T07:48:49;17.23;;;6.22;;
43580;SDS011;29175;51.030;4.606;2022-11-27T07:51:16;21.13;;;5.63;;
43580;SDS011;29175;51.030;4.606;2022-11-27T07:53:43;19.92;;;5.72;;
43580;SDS011;29175;51.030;4.606;2022-11-27T07:56:10;22.80;;;6.25;;
43580;SDS011;29175;51.030;4.606;2022-11-27T07:58:37;17.55;;;5.30;;
43580;SDS011;29175;51.030;4.606;2022-11-27T08:01:09;12.50;;;5.47;;
43580;SDS011;29175;51.030;4.606;2022-11-27T08:03:39;15.60;;;5.78;;
43580;SDS011;29175;51.030;4.606;2022-11-27T08:08:41;15.70;;;5.78;;
43580;SDS011;29175;51.030;4.606;2022-11-27T08:11:17;15.02;;;6.22;;
43580;SDS011;29175;51.030;4.606;2022-11-27T08:13:46;15.70;;;5.68;;
43580;SDS011;29175;51.030;4.606;2022-11-27T08:16:11;17.08;;;5.70;;
43580;SDS011;29175;51.030;4.606;2022-11-27T08:18:37;14.48;;;5.43;;
43580;SDS011;29175;51.030;4.606;2022-11-27T08:21:03;13.20;;;5.88;;
43580;SDS011;29175;51.030;4.606;2022-11-27T08:23:29;16.80;;;6.32;;
43580;SDS011;29175;51.030;4.606;2022-11-27T08:25:54;16.85;;;5.80;;
43580;SDS011;29175;51.030;4.606;2022-11-27T08:28:20;13.35;;;5.57;;
43580;SDS011;29175;51.030;4.606;2022-11-27T08:30:53;18.13;;;6.20;;
43580;SDS011;29175;51.030;4.606;2022-11-27T08:33:23;15.85;;;5.78;;
43580;SDS011;29175;51.030;4.606;2022-11-27T08:35:50;19.52;;;5.93;;
43580;SDS011;29175;51.030;4.606;2022-11-27T08:38:16;19.35;;;6.25;;
43580;SDS011;29175;51.030;4.606;2022-11-27T08:40:42;16.25;;;5.63;;
43580;SDS011;29175;51.030;4.606;2022-11-27T08:43:09;15.80;;;5.78;;
43580;SDS011;29175;51.030;4.606;2022-11-27T08:45:36;19.40;;;5.55;;
43580;SDS011;29175;51.030;4.606;2022-11-27T08:48:03;19.42;;;5.68;;
43580;SDS011;29175;51.030;4.606;2022-11-27T08:50:30;14.55;;;5.47;;
43580;SDS011;29175;51.030;4.606;2022-11-27T08:52:55;12.95;;;5.18;;
43580;SDS011;29175;51.030;4.606;2022-11-27T08:55:21;17.48;;;5.50;;
43580;SDS011;29175;51.030;4.606;2022-11-27T08:57:48;18.13;;;5.57;;
43580;SDS011;29175;51.030;4.606;2022-11-27T09:00:15;24.23;;;5.53;;
43580;SDS011;29175;51.030;4.606;2022-11-27T09:02:42;11.05;;;4.95;;
43580;SDS011;29175;51.030;4.606;2022-11-27T09:05:08;14.40;;;5.00;;
43580;SDS011;29175;51.030;4.606;2022-11-27T09:07:34;16.90;;;6.13;;
43580;SDS011;29175;51.030;4.606;2022-11-27T09:10:00;14.90;;;5.28;;
43580;SDS011;29175;51.030;4.606;2022-11-27T09:12:27;14.23;;;5.38;;
43580;SDS011;29175;51.030;4.606;2022-11-27T09:14:53;18.42;;;5.35;;
43580;SDS011;29175;51.030;4.606;2022-11-27T09:19:47;11.98;;;4.72;;
43580;SDS011;29175;51.030;4.606;2022-11-27T09:22:13;10.63;;;5.32;;
43580;SDS011;29175;51.030;4.606;2022-11-27T09:24:40;12.55;;;4.75;;
43580;SDS011;29175;51.030;4.606;2022-11-27T09:27:09;10.82;;;5.07;;
43580;SDS011;29175;51.030;4.606;2022-11-27T09:29:34;17.48;;;5.50;;
43580;SDS011;29175;51.030;4.606;2022-11-27T09:32:01;10.60;;;4.72;;
43580;SDS011;29175;51.030;4.606;2022-11-27T09:34:29;12.30;;;4.72;;
43580;SDS011;29175;51.030;4.606;2022-11-27T09:36:55;12.95;;;5.63;;
43580;SDS011;29175;51.030;4.606;2022-11-27T09:39:21;15.88;;;5.50;;
43580;SDS011;29175;51.030;4.606;2022-11-27T09:41:50;11.93;;;5.38;;
43580;SDS011;29175;51.030;4.606;2022-11-27T09:44:31;12.60;;;5.60;;
43580;SDS011;29175;51.030;4.606;2022-11-27T09:47:15;26.00;;;5.43;;
43580;SDS011;29175;51.030;4.606;2022-11-27T09:50:00;17.48;;;5.65;;
43580;SDS011;29175;51.030;4.606;2022-11-27T09:52:38;11.90;;;5.10;;
43580;SDS011;29175;51.030;4.606;2022-11-27T09:57:50;13.38;;;5.90;;
43580;SDS011;29175;51.030;4.606;2022-11-27T10:00:31;13.38;;;5.00;;
43580;SDS011;29175;51.030;4.606;2022-11-27T10:02:58;14.57;;;5.57;;
43580;SDS011;29175;51.030;4.606;2022-11-27T10:06:10;14.15;;;5.78;;
43580;SDS011;29175;51.030;4.606;2022-11-27T10:08:20;17.23;;;5.28;;
43580;SDS011;29175;51.030;4.606;2022-11-27T10:11:00;14.95;;;5.90;;
43580;SDS011;29175;51.030;4.606;2022-11-27T10:13:46;10.60;;;5.47;;
43580;SDS011;29175;51.030;4.606;2022-11-27T10:16:24;12.00;;;4.55;;
43580;SDS011;29175;51.030;4.606;2022-11-27T10:18:51;16.17;;;5.60;;
43580;SDS011;29175;51.030;4.606;2022-11-27T10:24:32;14.85;;;5.40;;
43580;SDS011;29175;51.030;4.606;2022-11-27T10:27:04;10.88;;;5.03;;
43580;SDS011;29175;51.030;4.606;2022-11-27T10:29:47;15.70;;;5.10;;
43580;SDS011;29175;51.030;4.606;2022-11-27T10:32:18;14.13;;;5.50;;
43580;SDS011;29175;51.030;4.606;2022-11-27T10:34:59;15.43;;;5.45;;
43580;SDS011;29175;51.030;4.606;2022-11-27T10:37:41;13.70;;;5.82;;
43580;SDS011;29175;51.030;4.606;2022-11-27T10:40:18;13.00;;;5.45;;
43580;SDS011;29175;51.030;4.606;2022-11-27T10:43:06;13.90;;;5.78;;
43580;SDS011;29175;51.030;4.606;2022-11-27T10:48:08;11.73;;;5.40;;
43580;SDS011;29175;51.030;4.606;2022-11-27T10:50:34;9.55;;;5.07;;
43580;SDS011;29175;51.030;4.606;2022-11-27T10:53:02;13.48;;;5.38;;
43580;SDS011;29175;51.030;4.606;2022-11-27T10:58:39;17.83;;;6.40;;
43580;SDS011;29175;51.030;4.606;2022-11-27T11:01:10;18.15;;;5.45;;
43580;SDS011;29175;51.030;4.606;2022-11-27T11:03:38;12.68;;;5.65;;
43580;SDS011;29175;51.030;4.606;2022-11-27T11:06:14;14.82;;;5.85;;
43580;SDS011;29175;51.030;4.606;2022-11-27T11:08:41;12.95;;;6.30;;
43580;SDS011;29175;51.030;4.606;2022-11-27T11:11:07;14.55;;;5.03;;
43580;SDS011;29175;51.030;4.606;2022-11-27T11:18:46;12.32;;;5.25;;
43580;SDS011;29175;51.030;4.606;2022-11-27T11:23:57;17.00;;;5.53;;
43580;SDS011;29175;51.030;4.606;2022-11-27T11:29:05;15.93;;;5.55;;
43580;SDS011;29175;51.030;4.606;2022-11-27T11:31:41;16.58;;;5.72;;
43580;SDS011;29175;51.030;4.606;2022-11-27T11:34:28;13.35;;;5.15;;
43580;SDS011;29175;51.030;4.606;2022-11-27T11:39:29;17.05;;;6.03;;
43580;SDS011;29175;51.030;4.606;2022-11-27T11:41:57;13.23;;;5.68;;
43580;SDS011;29175;51.030;4.606;2022-11-27T11:44:30;14.43;;;6.45;;
43580;SDS011;29175;51.030;4.606;2022-11-27T11:47:00;12.77;;;6.15;;
43580;SDS011;29175;51.030;4.606;2022-11-27T11:49:26;13.32;;;5.82;;
43580;SDS011;29175;51.030;4.606;2022-11-27T11:57:30;11.07;;;5.50;;
43580;SDS011;29175;51.030;4.606;2022-11-27T12:00:20;29.55;;;7.50;;
43580;SDS011;29175;51.030;4.606;2022-11-27T12:08:14;17.42;;;6.10;;
43580;SDS011;29175;51.030;4.606;2022-11-27T12:10:53;15.50;;;6.28;;
43580;SDS011;29175;51.030;4.606;2022-11-27T12:41:30;13.68;;;5.70;;
43580;SDS011;29175;51.030;4.606;2022-11-27T12:44:13;16.83;;;6.55;;
43580;SDS011;29175;51.030;4.606;2022-11-27T12:51:45;16.30;;;5.90;;
43580;SDS011;29175;51.030;4.606;2022-11-27T12:54:17;13.90;;;6.45;;
43580;SDS011;29175;51.030;4.606;2022-11-27T12:56:51;18.15;;;6.32;;
43580;SDS011;29175;51.030;4.606;2022-11-27T12:59:26;17.45;;;6.13;;
43580;SDS011;29175;51.030;4.606;2022-11-27T13:02:20;15.75;;;5.90;;
43580;SDS011;29175;51.030;4.606;2022-11-27T13:05:09;18.67;;;6.22;;
43580;SDS011;29175;51.030;4.606;2022-11-27T13:15:41;16.33;;;5.80;;
43580;SDS011;29175;51.030;4.606;2022-11-27T13:20:55;17.90;;;6.75;;
43580;SDS011;29175;51.030;4.606;2022-11-27T13:23:25;20.38;;;6.30;;
43580;SDS011;29175;51.030;4.606;2022-11-27T13:25:56;16.77;;;6.32;;
43580;SDS011;29175;51.030;4.606;2022-11-27T13:33:45;16.02;;;6.75;;
43580;SDS011;29175;51.030;4.606;2022-11-27T13:36:25;18.10;;;6.70;;
43580;SDS011;29175;51.030;4.606;2022-11-27T13:39:03;14.35;;;6.47;;
43580;SDS011;29175;51.030;4.606;2022-11-27T13:41:34;22.63;;;6.57;;
43580;SDS011;29175;51.030;4.606;2022-11-27T13:44:17;19.25;;;6.55;;
43580;SDS011;29175;51.030;4.606;2022-11-27T13:46:49;19.35;;;5.95;;
43580;SDS011;29175;51.030;4.606;2022-11-27T13:49:23;18.20;;;6.32;;
43580;SDS011;29175;51.030;4.606;2022-11-27T13:54:35;12.93;;;6.15;;
43580;SDS011;29175;51.030;4.606;2022-11-27T13:57:08;15.98;;;6.40;;
43580;SDS011;29175;51.030;4.606;2022-11-27T13:59:39;18.40;;;6.50;;
43580;SDS011;29175;51.030;4.606;2022-11-27T14:02:07;16.85;;;6.05;;
43580;SDS011;29175;51.030;4.606;2022-11-27T14:04:33;16.42;;;6.32;;
43580;SDS011;29175;51.030;4.606;2022-11-27T14:07:02;18.15;;;6.50;;
43580;SDS011;29175;51.030;4.606;2022-11-27T14:09:47;16.05;;;5.97;;
43580;SDS011;29175;51.030;4.606;2022-11-27T14:12:22;14.00;;;6.22;;
43580;SDS011;29175;51.030;4.606;2022-11-27T14:15:02;15.27;;;6.10;;
43580;SDS011;29175;51.030;4.606;2022-11-27T14:17:41;18.92;;;7.25;;
43580;SDS011;29175;51.030;4.606;2022-11-27T14:27:46;17.13;;;6.93;;
43580;SDS011;29175;51.030;4.606;2022-11-27T14:30:34;18.48;;;6.38;;
43580;SDS011;29175;51.030;4.606;2022-11-27T14:33:18;15.75;;;6.57;;
43580;SDS011;29175;51.030;4.606;2022-11-27T14:35:50;15.43;;;6.47;;
43580;SDS011;29175;51.030;4.606;2022-11-27T14:38:19;13.07;;;6.55;;
43580;SDS011;29175;51.030;4.606;2022-11-27T14:40:45;12.60;;;6.05;;
43580;SDS011;29175;51.030;4.606;2022-11-27T14:43:15;14.23;;;6.28;;
43580;SDS011;29175;51.030;4.606;2022-11-27T14:45:56;14.70;;;6.40;;
43580;SDS011;29175;51.030;4.606;2022-11-27T14:48:30;16.27;;;6.35;;
43580;SDS011;29175;51.030;4.606;2022-11-27T14:51:09;12.82;;;6.25;;
43580;SDS011;29175;51.030;4.606;2022-11-27T14:53:40;17.15;;;6.03;;
43580;SDS011;29175;51.030;4.606;2022-11-27T14:56:06;16.20;;;6.13;;
43580;SDS011;29175;51.030;4.606;2022-11-27T14:58:32;11.80;;;5.85;;
43580;SDS011;29175;51.030;4.606;2022-11-27T15:00:59;18.30;;;6.88;;
43580;SDS011;29175;51.030;4.606;2022-11-27T15:03:27;15.38;;;6.30;;
43580;SDS011;29175;51.030;4.606;2022-11-27T15:05:57;13.00;;;5.72;;
43580;SDS011;29175;51.030;4.606;2022-11-27T15:08:25;14.25;;;6.35;;
43580;SDS011;29175;51.030;4.606;2022-11-27T15:10:53;15.15;;;5.82;;
43580;SDS011;29175;51.030;4.606;2022-11-27T15:13:22;14.63;;;6.47;;
43580;SDS011;29175;51.030;4.606;2022-11-27T15:16:06;20.05;;;6.55;;
43580;SDS011;29175;51.030;4.606;2022-11-27T15:18:42;17.23;;;6.63;;
43580;SDS011;29175;51.030;4.606;2022-11-27T15:21:18;14.45;;;5.70;;
43580;SDS011;29175;51.030;4.606;2022-11-27T15:23:51;14.15;;;5.78;;
43580;SDS011;29175;51.030;4.606;2022-11-27T15:26:37;17.27;;;6.22;;
43580;SDS011;29175;51.030;4.606;2022-11-27T15:32:02;11.15;;;5.53;;
43580;SDS011;29175;51.030;4.606;2022-11-27T15:34:41;13.93;;;6.03;;
43580;SDS011;29175;51.030;4.606;2022-11-27T15:42:15;12.55;;;5.88;;
43580;SDS011;29175;51.030;4.606;2022-11-27T15:44:43;14.38;;;6.20;;
43580;SDS011;29175;51.030;4.606;2022-11-27T15:47:22;12.63;;;5.90;;
43580;SDS011;29175;51.030;4.606;2022-11-27T15:49:48;14.47;;;6.03;;
43580;SDS011;29175;51.030;4.606;2022-11-27T15:52:14;17.67;;;6.22;;
43580;SDS011;29175;51.030;4.606;2022-11-27T15:54:40;12.27;;;5.90;;
43580;SDS011;29175;51.030;4.606;2022-11-27T15:57:06;13.00;;;6.10;;
43580;SDS011;29175;51.030;4.606;2022-11-27T15:59:31;14.30;;;6.40;;
43580;SDS011;29175;51.030;4.606;2022-11-27T16:01:57;15.80;;;6.20;;
43580;SDS011;29175;51.030;4.606;2022-11-27T16:04:22;16.40;;;6.97;;
43580;SDS011;29175;51.030;4.606;2022-11-27T16:06:48;19.10;;;7.18;;
43580;SDS011;29175;51.030;4.606;2022-11-27T16:09:14;19.20;;;7.32;;
43580;SDS011;29175;51.030;4.606;2022-11-27T16:11:39;18.75;;;7.00;;
43580;SDS011;29175;51.030;4.606;2022-11-27T16:14:05;17.63;;;7.38;;
43580;SDS011;29175;51.030;4.606;2022-11-27T16:16:31;15.38;;;6.70;;
43580;SDS011;29175;51.030;4.606;2022-11-27T16:19:00;18.60;;;7.80;;
43580;SDS011;29175;51.030;4.606;2022-11-27T16:21:28;15.23;;;7.13;;
43580;SDS011;29175;51.030;4.606;2022-11-27T16:23:55;12.88;;;6.40;;
43580;SDS011;29175;51.030;4.606;2022-11-27T16:26:22;17.10;;;6.93;;
43580;SDS011;29175;51.030;4.606;2022-11-27T16:28:48;15.90;;;7.18;;
43580;SDS011;29175;51.030;4.606;2022-11-27T16:31:13;19.15;;;6.72;;
43580;SDS011;29175;51.030;4.606;2022-11-27T16:33:40;11.48;;;5.55;;
43580;SDS011;29175;51.030;4.606;2022-11-27T16:36:07;16.40;;;7.18;;
43580;SDS011;29175;51.030;4.606;2022-11-27T16:38:34;22.80;;;8.00;;
43580;SDS011;29175;51.030;4.606;2022-11-27T16:41:00;19.40;;;8.38;;
43580;SDS011;29175;51.030;4.606;2022-11-27T16:43:30;21.90;;;8.82;;
43580;SDS011;29175;51.030;4.606;2022-11-27T16:46:05;14.75;;;7.00;;
43580;SDS011;29175;51.030;4.606;2022-11-27T16:48:35;14.50;;;7.30;;
43580;SDS011;29175;51.030;4.606;2022-11-27T16:51:21;16.80;;;7.90;;
43580;SDS011;29175;51.030;4.606;2022-11-27T16:53:50;18.00;;;7.72;;
43580;SDS011;29175;51.030;4.606;2022-11-27T16:56:18;21.48;;;9.25;;
43580;SDS011;29175;51.030;4.606;2022-11-27T16:58:45;22.38;;;8.13;;
43580;SDS011;29175;51.030;4.606;2022-11-27T17:01:13;22.98;;;8.10;;
43580;SDS011;29175;51.030;4.606;2022-11-27T17:03:41;16.83;;;8.15;;
43580;SDS011;29175;51.030;4.606;2022-11-27T17:06:10;17.45;;;8.15;;